Martin Express — WDB3169 — position and weather

sailwx.info

Track history (hours):
 
Tides and Currents Weather Stations Pressure Air Temp Water Temp Dewpoint Dewpoint Depression Visibility Wind Speed Wind Dir Waves Ship Positions

Martin Express

Owner: CF Martin Sulphur LP, La Porte, TX. More information available from US FCC via Universal Licensing System and Coast Guard Vessel Documentation Center.

Last reported at 2018-Feb-21 02:09 UTC. Time now 2018-Feb-21 22:56 UTC.
Position N 29°43' W 095°01'.

Length 18 m; draft 3 m.

Type: Towing. MMSI: 366884150.

Date/timePositionNaut miles runAvg speedWind from/ knotsBaromVisibWave heightAir tempDewpointWater temp
2018-Feb-21 02:09N 29°43' W 095°01'1 7.1
2018-Feb-21 02:00N 29°42' W 095°01'3 6.7
2018-Feb-21 01:30N 29°40' W 094°58'3 6.9
2018-Feb-21 01:00N 29°36' W 094°57'3 6.9
2018-Feb-21 00:30N 29°34' W 094°55'16 5.6
2018-Feb-20 21:41N 29°19' W 094°49'0 0.0
2018-Feb-20 17:27N 29°18' W 094°49'0 0.0
2018-Feb-20 16:58N 29°18' W 094°49'0 0.0
2018-Feb-20 16:28N 29°18' W 094°49'0 0.0
2018-Feb-20 14:30N 29°18' W 094°49'0 0.0
2018-Feb-20 13:53N 29°18' W 094°49'0 0.0
2018-Feb-20 13:30N 29°18' W 094°49'0 0.0
2018-Feb-20 13:00N 29°18' W 094°49'0 0.0
2018-Feb-20 12:29N 29°18' W 094°49'0 0.0
2018-Feb-20 11:49N 29°18' W 094°49'0 0.0
2018-Feb-20 11:30N 29°18' W 094°49'0 0.0
2018-Feb-20 10:58N 29°18' W 094°49'0 0.0
2018-Feb-20 10:24N 29°18' W 094°49'0 0.0
2018-Feb-20 09:47N 29°18' W 094°49'0 0.0
2018-Feb-20 09:30N 29°18' W 094°49'0 0.0
2018-Feb-20 08:58N 29°18' W 094°49'0 0.0
2018-Feb-20 08:27N 29°18' W 094°49'0 0.0
2018-Feb-20 07:58N 29°18' W 094°49'0 0.0
2018-Feb-20 07:30N 29°18' W 094°49'0 0.0
2018-Feb-20 07:00N 29°18' W 094°49'0 0.0
2018-Feb-20 06:30N 29°18' W 094°49'12 4.0
2018-Feb-20 03:33N 29°30' W 094°52'1 5.5
2018-Feb-20 03:18N 29°31' W 094°53'2 5.5
2018-Feb-20 03:00N 29°32' W 094°54'3 5.6
2018-Feb-20 02:29N 29°35' W 094°56'3 5.4
2018-Feb-20 02:00N 29°37' W 094°57'3 5.4
2018-Feb-20 01:30N 29°40' W 094°58'3 5.1
2018-Feb-20 00:52N 29°42' W 095°01'2 0.1
2018-Feb-19 08:23N 29°44' W 095°01'2 0.3
2018-Feb-19 02:14N 29°42' W 095°01'1 6.5
2018-Feb-19 02:00N 29°42' W 094°59'3 6.6
2018-Feb-19 01:30N 29°39' W 094°58'4 7.5
2018-Feb-19 01:00N 29°35' W 094°56'4 7.5
2018-Feb-19 00:30N 29°32' W 094°54'14 2.8
2018-Feb-18 19:22N 29°18' W 094°49'0 0.3
2018-Feb-18 18:56N 29°18' W 094°49'0 0.0
2018-Feb-18 18:27N 29°18' W 094°49'2 3.0
2018-Feb-18 17:42N 29°19' W 094°47'1 5.4
2018-Feb-18 17:30N 29°20' W 094°47'5 7.2
2018-Feb-18 16:45N 29°25' W 094°50'3 6.8
2018-Feb-18 16:21N 29°28' W 094°51'3 6.3
2018-Feb-18 15:48N 29°31' W 094°53'2 6.2
2018-Feb-18 15:29N 29°32' W 094°54'3 6.1
2018-Feb-18 14:58N 29°35' W 094°56'3 6.0
2018-Feb-18 14:29N 29°37' W 094°58'3 6.2
2018-Feb-18 14:00N 29°40' W 094°59'11 0.9
2018-Feb-18 02:31N 29°45' W 095°10'1 6.6
2018-Feb-18 02:22N 29°44' W 095°09'4 6.5
2018-Feb-18 01:46N 29°46' W 095°05'2 6.8
2018-Feb-18 01:29N 29°44' W 095°03'3 6.0
2018-Feb-18 01:00N 29°42' W 095°01'3 6.9
2018-Feb-18 00:30N 29°40' W 094°58'4 7.4
2018-Feb-18 00:00N 29°36' W 094°57'4 7.5
2018-Feb-17 23:30N 29°33' W 094°55'2 0.2
2018-Feb-17 14:49N 29°31' W 094°53'4 6.4
2018-Feb-17 14:15N 29°34' W 094°56'2 6.3
2018-Feb-17 14:00N 29°36' W 094°57'3 6.2
2018-Feb-17 13:30N 29°39' W 094°58'3 6.8
2018-Feb-17 13:00N 29°42' W 094°60'3 0.2
2018-Feb-16 19:42N 29°44' W 095°01'0 0.0
2018-Feb-16 19:29N 29°44' W 095°01'0 0.0
2018-Feb-16 18:56N 29°44' W 095°01'0 0.2
2018-Feb-16 18:25N 29°44' W 095°01'0 0.0
2018-Feb-16 18:00N 29°44' W 095°01'0 0.0
2018-Feb-16 17:30N 29°44' W 095°01'0 0.0
2018-Feb-16 16:51N 29°44' W 095°01'0 0.2
2018-Feb-16 16:24N 29°44' W 095°01'0 0.0
2018-Feb-16 16:00N 29°44' W 095°01'0 0.0
2018-Feb-16 15:29N 29°44' W 095°01'0 0.0
2018-Feb-16 14:59N 29°44' W 095°01'0 0.0
2018-Feb-16 14:30N 29°44' W 095°01'0 0.0
2018-Feb-16 13:59N 29°44' W 095°01'6 1.7
2018-Feb-16 10:43N 29°39' W 094°58'6 1.0
2018-Feb-16 04:55N 29°44' W 095°01'27 2.4
2018-Feb-15 17:20N 29°19' W 094°49'0 0.2
2018-Feb-15 15:40N 29°18' W 094°49'0 0.0
2018-Feb-15 15:27N 29°18' W 094°49'0 0.0
2018-Feb-15 14:58N 29°18' W 094°49'0 0.0
2018-Feb-15 14:25N 29°18' W 094°49'0 0.0
2018-Feb-15 13:53N 29°18' W 094°49'0 0.0
2018-Feb-15 13:26N 29°18' W 094°49'0 0.0
2018-Feb-15 13:00N 29°18' W 094°49'0 0.0
2018-Feb-15 12:28N 29°18' W 094°49'0 0.0
2018-Feb-15 11:59N 29°18' W 094°49'0 0.0
2018-Feb-15 11:30N 29°18' W 094°49'0 0.0
2018-Feb-15 10:58N 29°18' W 094°49'0 0.0
2018-Feb-15 10:30N 29°18' W 094°49'0 0.0
2018-Feb-15 10:00N 29°18' W 094°49'0 0.0
2018-Feb-15 09:29N 29°18' W 094°49'0 0.0
2018-Feb-15 08:59N 29°18' W 094°49'0 0.0
2018-Feb-15 08:30N 29°18' W 094°49'0 0.0
2018-Feb-15 07:59N 29°18' W 094°49'0 0.0
2018-Feb-15 07:30N 29°18' W 094°49'0 0.0
2018-Feb-15 07:00N 29°18' W 094°49'0 0.0
2018-Feb-15 06:30N 29°18' W 094°49'0 0.0
2018-Feb-15 06:00N 29°18' W 094°49'0 0.0
2018-Feb-15 05:30N 29°18' W 094°49'0 0.0
2018-Feb-15 05:00N 29°18' W 094°49'0 0.0
2018-Feb-15 04:30N 29°18' W 094°49'0 0.0
2018-Feb-15 04:00N 29°18' W 094°49'0 0.0
2018-Feb-15 03:30N 29°18' W 094°49'0 0.3
2018-Feb-15 02:59N 29°19' W 094°49'2 4.3
2018-Feb-15 02:29N 29°19' W 094°47'2 4.7
2018-Feb-15 02:00N 29°22' W 094°48'4 4.9
2018-Feb-15 01:14N 29°25' W 094°50'2 4.9
2018-Feb-15 00:53N 29°27' W 094°50'3 5.1
2018-Feb-15 00:23N 29°29' W 094°52'3 5.2
2018-Feb-14 23:47N 29°32' W 094°53'1 3.8
2018-Feb-14 23:30N 29°32' W 094°54'3 5.6
2018-Feb-14 22:55N 29°35' W 094°56'2 4.9
2018-Feb-14 22:30N 29°37' W 094°57'2 4.8
2018-Feb-14 22:00N 29°39' W 094°58'3 6.0
2018-Feb-14 21:26N 29°42' W 095°01'3 5.5
2018-Feb-14 20:51N 29°44' W 095°03'5 4.7
2018-Feb-14 19:50N 29°44' W 095°09'1 0.0
2018-Feb-13 00:27N 29°45' W 095°10'5 2.4
2018-Feb-12 22:17N 29°46' W 095°04'2 6.3
2018-Feb-12 22:00N 29°44' W 095°03'3 5.3
2018-Feb-12 21:30N 29°42' W 095°01'3 5.7
2018-Feb-12 21:00N 29°40' W 094°59'3 6.7
2018-Feb-12 20:30N 29°37' W 094°57'3 6.8
2018-Feb-12 20:00N 29°34' W 094°55'17 0.9
2018-Feb-12 01:22N 29°18' W 094°49'14 2.1
2018-Feb-11 18:51N 29°32' W 094°54'2 5.6
2018-Feb-11 18:28N 29°33' W 094°55'3 5.4
2018-Feb-11 17:53N 29°36' W 094°57'2 6.1
2018-Feb-11 17:30N 29°38' W 094°58'3 6.6
2018-Feb-11 17:00N 29°41' W 094°59'  
Track history (hours):
 
Tides and Currents Weather Stations Pressure Air Temp Water Temp Dewpoint Dewpoint Depression Visibility Wind Speed Wind Dir Waves Ship Positions

Martin Express

Owner: CF Martin Sulphur LP, La Porte, TX. More information available from US FCC via Universal Licensing System and Coast Guard Vessel Documentation Center.

Last reported at 2018-Feb-21 02:09 UTC. Time now 2018-Feb-21 22:56 UTC.
Position N 29°43' W 095°01'.

Length 18 m; draft 3 m.

Type: Towing. MMSI: 366884150.

Date/timePositionNaut miles runAvg speedWind from/ knotsBaromVisibWave heightAir tempDewpointWater temp
2018-Feb-21 02:09N 29°43' W 095°01'1 7.1
2018-Feb-21 02:00N 29°42' W 095°01'3 6.7
2018-Feb-21 01:30N 29°40' W 094°58'3 6.9
2018-Feb-21 01:00N 29°36' W 094°57'3 6.9
2018-Feb-21 00:30N 29°34' W 094°55'16 5.6
2018-Feb-20 21:41N 29°19' W 094°49'0 0.0
2018-Feb-20 17:27N 29°18' W 094°49'0 0.0
2018-Feb-20 16:58N 29°18' W 094°49'0 0.0
2018-Feb-20 16:28N 29°18' W 094°49'0 0.0
2018-Feb-20 14:30N 29°18' W 094°49'0 0.0
2018-Feb-20 13:53N 29°18' W 094°49'0 0.0
2018-Feb-20 13:30N 29°18' W 094°49'0 0.0
2018-Feb-20 13:00N 29°18' W 094°49'0 0.0
2018-Feb-20 12:29N 29°18' W 094°49'0 0.0
2018-Feb-20 11:49N 29°18' W 094°49'0 0.0
2018-Feb-20 11:30N 29°18' W 094°49'0 0.0
2018-Feb-20 10:58N 29°18' W 094°49'0 0.0
2018-Feb-20 10:24N 29°18' W 094°49'0 0.0
2018-Feb-20 09:47N 29°18' W 094°49'0 0.0
2018-Feb-20 09:30N 29°18' W 094°49'0 0.0
2018-Feb-20 08:58N 29°18' W 094°49'0 0.0
2018-Feb-20 08:27N 29°18' W 094°49'0 0.0
2018-Feb-20 07:58N 29°18' W 094°49'0 0.0
2018-Feb-20 07:30N 29°18' W 094°49'0 0.0
2018-Feb-20 07:00N 29°18' W 094°49'0 0.0
2018-Feb-20 06:30N 29°18' W 094°49'12 4.0
2018-Feb-20 03:33N 29°30' W 094°52'1 5.5
2018-Feb-20 03:18N 29°31' W 094°53'2 5.5
2018-Feb-20 03:00N 29°32' W 094°54'3 5.6
2018-Feb-20 02:29N 29°35' W 094°56'3 5.4
2018-Feb-20 02:00N 29°37' W 094°57'3 5.4
2018-Feb-20 01:30N 29°40' W 094°58'3 5.1
2018-Feb-20 00:52N 29°42' W 095°01'2 0.1
2018-Feb-19 08:23N 29°44' W 095°01'2 0.3
2018-Feb-19 02:14N 29°42' W 095°01'1 6.5
2018-Feb-19 02:00N 29°42' W 094°59'3 6.6
2018-Feb-19 01:30N 29°39' W 094°58'4 7.5
2018-Feb-19 01:00N 29°35' W 094°56'4 7.5
2018-Feb-19 00:30N 29°32' W 094°54'14 2.8
2018-Feb-18 19:22N 29°18' W 094°49'0 0.3
2018-Feb-18 18:56N 29°18' W 094°49'0 0.0
2018-Feb-18 18:27N 29°18' W 094°49'2 3.0
2018-Feb-18 17:42N 29°19' W 094°47'1 5.4
2018-Feb-18 17:30N 29°20' W 094°47'5 7.2
2018-Feb-18 16:45N 29°25' W 094°50'3 6.8
2018-Feb-18 16:21N 29°28' W 094°51'3 6.3
2018-Feb-18 15:48N 29°31' W 094°53'2 6.2
2018-Feb-18 15:29N 29°32' W 094°54'3 6.1
2018-Feb-18 14:58N 29°35' W 094°56'3 6.0
2018-Feb-18 14:29N 29°37' W 094°58'3 6.2
2018-Feb-18 14:00N 29°40' W 094°59'11 0.9
2018-Feb-18 02:31N 29°45' W 095°10'1 6.6
2018-Feb-18 02:22N 29°44' W 095°09'4 6.5
2018-Feb-18 01:46N 29°46' W 095°05'2 6.8
2018-Feb-18 01:29N 29°44' W 095°03'3 6.0
2018-Feb-18 01:00N 29°42' W 095°01'3 6.9
2018-Feb-18 00:30N 29°40' W 094°58'4 7.4
2018-Feb-18 00:00N 29°36' W 094°57'4 7.5
2018-Feb-17 23:30N 29°33' W 094°55'2 0.2
2018-Feb-17 14:49N 29°31' W 094°53'4 6.4
2018-Feb-17 14:15N 29°34' W 094°56'2 6.3
2018-Feb-17 14:00N 29°36' W 094°57'3 6.2
2018-Feb-17 13:30N 29°39' W 094°58'3 6.8
2018-Feb-17 13:00N 29°42' W 094°60'3 0.2
2018-Feb-16 19:42N 29°44' W 095°01'0 0.0
2018-Feb-16 19:29N 29°44' W 095°01'0 0.0
2018-Feb-16 18:56N 29°44' W 095°01'0 0.2
2018-Feb-16 18:25N 29°44' W 095°01'0 0.0
2018-Feb-16 18:00N 29°44' W 095°01'0 0.0
2018-Feb-16 17:30N 29°44' W 095°01'0 0.0
2018-Feb-16 16:51N 29°44' W 095°01'0 0.2
2018-Feb-16 16:24N 29°44' W 095°01'0 0.0
2018-Feb-16 16:00N 29°44' W 095°01'0 0.0
2018-Feb-16 15:29N 29°44' W 095°01'0 0.0
2018-Feb-16 14:59N 29°44' W 095°01'0 0.0
2018-Feb-16 14:30N 29°44' W 095°01'0 0.0
2018-Feb-16 13:59N 29°44' W 095°01'6 1.7
2018-Feb-16 10:43N 29°39' W 094°58'6 1.0
2018-Feb-16 04:55N 29°44' W 095°01'27 2.4
2018-Feb-15 17:20N 29°19' W 094°49'0 0.2
2018-Feb-15 15:40N 29°18' W 094°49'0 0.0
2018-Feb-15 15:27N 29°18' W 094°49'0 0.0
2018-Feb-15 14:58N 29°18' W 094°49'0 0.0
2018-Feb-15 14:25N 29°18' W 094°49'0 0.0
2018-Feb-15 13:53N 29°18' W 094°49'0 0.0
2018-Feb-15 13:26N 29°18' W 094°49'0 0.0
2018-Feb-15 13:00N 29°18' W 094°49'0 0.0
2018-Feb-15 12:28N 29°18' W 094°49'0 0.0
2018-Feb-15 11:59N 29°18' W 094°49'0 0.0
2018-Feb-15 11:30N 29°18' W 094°49'0 0.0
2018-Feb-15 10:58N 29°18' W 094°49'0 0.0
2018-Feb-15 10:30N 29°18' W 094°49'0 0.0
2018-Feb-15 10:00N 29°18' W 094°49'0 0.0
2018-Feb-15 09:29N 29°18' W 094°49'0 0.0
2018-Feb-15 08:59N 29°18' W 094°49'0 0.0
2018-Feb-15 08:30N 29°18' W 094°49'0 0.0
2018-Feb-15 07:59N 29°18' W 094°49'0 0.0
2018-Feb-15 07:30N 29°18' W 094°49'0 0.0
2018-Feb-15 07:00N 29°18' W 094°49'0 0.0
2018-Feb-15 06:30N 29°18' W 094°49'0 0.0
2018-Feb-15 06:00N 29°18' W 094°49'0 0.0
2018-Feb-15 05:30N 29°18' W 094°49'0 0.0
2018-Feb-15 05:00N 29°18' W 094°49'0 0.0
2018-Feb-15 04:30N 29°18' W 094°49'0 0.0
2018-Feb-15 04:00N 29°18' W 094°49'0 0.0
2018-Feb-15 03:30N 29°18' W 094°49'0 0.3
2018-Feb-15 02:59N 29°19' W 094°49'2 4.3
2018-Feb-15 02:29N 29°19' W 094°47'2 4.7
2018-Feb-15 02:00N 29°22' W 094°48'4 4.9
2018-Feb-15 01:14N 29°25' W 094°50'2 4.9
2018-Feb-15 00:53N 29°27' W 094°50'3 5.1
2018-Feb-15 00:23N 29°29' W 094°52'3 5.2
2018-Feb-14 23:47N 29°32' W 094°53'1 3.8
2018-Feb-14 23:30N 29°32' W 094°54'3 5.6
2018-Feb-14 22:55N 29°35' W 094°56'2 4.9
2018-Feb-14 22:30N 29°37' W 094°57'2 4.8
2018-Feb-14 22:00N 29°39' W 094°58'3 6.0
2018-Feb-14 21:26N 29°42' W 095°01'3 5.5
2018-Feb-14 20:51N 29°44' W 095°03'5 4.7
2018-Feb-14 19:50N 29°44' W 095°09'1 0.0
2018-Feb-13 00:27N 29°45' W 095°10'5 2.4
2018-Feb-12 22:17N 29°46' W 095°04'2 6.3
2018-Feb-12 22:00N 29°44' W 095°03'3 5.3
2018-Feb-12 21:30N 29°42' W 095°01'3 5.7
2018-Feb-12 21:00N 29°40' W 094°59'3 6.7
2018-Feb-12 20:30N 29°37' W 094°57'3 6.8
2018-Feb-12 20:00N 29°34' W 094°55'17 0.9
2018-Feb-12 01:22N 29°18' W 094°49'14 2.1
2018-Feb-11 18:51N 29°32' W 094°54'2 5.6
2018-Feb-11 18:28N 29°33' W 094°55'3 5.4
2018-Feb-11 17:53N 29°36' W 094°57'2 6.1
2018-Feb-11 17:30N 29°38' W 094°58'3 6.6
2018-Feb-11 17:00N 29°41' W 094°59'  

Dump ship's entire track history